createdAt,value
2019-04-11T00:11:00.319Z,100300.41
2019-04-11T00:13:33.417Z,100311.02
2019-04-11T00:16:15.172Z,100306.59
2019-04-11T00:18:45.713Z,100309.99
2019-04-11T00:21:26.851Z,100314.71
2019-04-11T00:23:58.667Z,100324.22
2019-04-11T00:26:33.947Z,100337.67
2019-04-11T00:29:05.949Z,100340.86
2019-04-11T00:31:41.151Z,100343.10
2019-04-11T00:34:12.964Z,100337.22
2019-04-11T00:36:48.531Z,100335.97
2019-04-11T00:39:19.498Z,100340.38
2019-04-11T00:52:53.730Z,100332.42
2019-04-11T00:55:24.096Z,100329.41
2019-04-11T01:08:33.078Z,100330.06
2019-04-11T01:11:05.706Z,100341.81
2019-04-11T01:25:04.484Z,100326.61
2019-04-11T01:27:36.147Z,100327.08
2019-04-11T01:45:23.818Z,100313.64
2019-04-11T01:47:59.462Z,100306.06
2019-04-11T02:01:50.412Z,100301.41
2019-04-11T02:04:23.769Z,100306.83
2019-04-11T02:18:01.324Z,100328.47
2019-04-11T02:20:33.345Z,100348.17
2019-04-11T02:23:13.179Z,100348.72
2019-04-11T02:26:03.015Z,100349.34
2019-04-11T02:28:39.036Z,100361.86
2019-04-11T02:31:11.702Z,100361.93
2019-04-11T02:33:51.162Z,100362.78
2019-04-11T02:36:22.602Z,100358.16
2019-04-11T02:39:06.260Z,100364.03
2019-04-11T02:41:35.890Z,100362.09
2019-04-11T02:55:13.015Z,100365.87
2019-04-11T02:57:43.185Z,100373.20
2019-04-11T03:00:15.903Z,100360.61
2019-04-11T03:02:53.515Z,100360.61
2019-04-11T03:05:26.757Z,100362.09
2019-04-11T03:08:07.960Z,100353.98
2019-04-11T03:10:37.780Z,100367.24
2019-04-11T03:13:16.764Z,100370.80
2019-04-11T03:15:59.504Z,100366.01
2019-04-11T03:18:45.818Z,100376.29
2019-04-11T03:21:04.593Z,100380.53
2019-04-11T03:23:39.507Z,100386.64
2019-04-11T03:26:12.370Z,100387.80
2019-04-11T03:28:53.708Z,100398.26
2019-04-11T03:32:04.958Z,100398.72
2019-04-11T03:34:51.780Z,100403.27
2019-04-11T03:37:15.240Z,100403.13
2019-04-11T03:39:39.474Z,100404.20
2019-04-11T03:42:07.919Z,100413.33
2019-04-11T04:06:38.998Z,100385.17
2019-04-11T04:09:10.891Z,100389.06
2019-04-11T04:11:51.265Z,100391.69
2019-04-11T04:14:45.272Z,100387.89
2019-04-11T04:28:00.872Z,100392.33
2019-04-11T04:30:33.678Z,100387.67
2019-04-11T04:44:31.614Z,100388.94
2019-04-11T04:47:15.677Z,100399.16
2019-04-11T04:49:43.681Z,100393.89
2019-04-11T04:52:16.435Z,100396.37
2019-04-11T04:54:59.426Z,100401.47
2019-04-11T04:57:33.289Z,100402.69
2019-04-11T05:00:11.824Z,100410.13
2019-04-11T05:02:44.250Z,100404.40
2019-04-11T05:20:09.192Z,100417.21
2019-04-11T05:22:40.200Z,100420.33
2019-04-11T05:25:12.609Z,100424.88
2019-04-11T05:27:43.913Z,100411.25
2019-04-11T05:30:19.220Z,100412.53
2019-04-11T05:32:50.909Z,100418.31
2019-04-11T05:46:35.284Z,100441.88
2019-04-11T05:49:05.299Z,100440.76
2019-04-11T05:51:45.730Z,100439.55
2019-04-11T05:54:16.309Z,100437.16
2019-04-11T06:07:58.599Z,100440.17
2019-04-11T06:10:48.398Z,100430.84
2019-04-11T06:24:39.193Z,100448.27
2019-04-11T06:27:17.290Z,100452.47
2019-04-11T06:30:05.502Z,100456.56
2019-04-11T06:32:56.298Z,100459.88
2019-04-11T06:35:48.429Z,100457.33
2019-04-11T06:38:38.662Z,100457.53
2019-04-11T06:52:12.823Z,100463.31
2019-04-11T06:55:04.567Z,100461.91
2019-04-11T06:57:43.876Z,100460.72
2019-04-11T07:00:17.089Z,100464.53
2019-04-11T07:14:27.085Z,100461.51
2019-04-11T07:17:16.855Z,100468.51
2019-04-11T07:20:43.762Z,100463.78
2019-04-11T07:23:33.042Z,100465.27
2019-04-11T07:30:42.847Z,100465.28
2019-04-11T07:33:20.184Z,100470.77
2019-04-11T07:36:12.392Z,100475.88
2019-04-11T07:38:52.403Z,100476.95
2019-04-11T07:41:34.096Z,100474.41
2019-04-11T07:55:02.631Z,100467.52
2019-04-11T07:57:34.781Z,100479.22
2019-04-11T08:11:13.489Z,100478.30
2019-04-11T08:14:04.216Z,100476.60
2019-04-11T08:20:33.295Z,100461.19
2019-04-11T08:23:06.002Z,100466.98
2019-04-11T08:25:45.538Z,100462.89
2019-04-11T08:28:20.652Z,100463.08
2019-04-11T08:31:05.826Z,100458.63
2019-04-11T08:33:42.923Z,100460.25
2019-04-11T08:36:17.715Z,100467.13
2019-04-11T08:38:59.052Z,100453.30
2019-04-11T08:41:35.757Z,100468.75
2019-04-11T08:44:13.500Z,100459.61
2019-04-11T08:46:46.863Z,100460.73
2019-04-11T09:00:24.287Z,100454.86
2019-04-11T09:02:57.536Z,100463.91
2019-04-11T09:17:01.789Z,100450.30
2019-04-11T09:19:45.206Z,100437.75
2019-04-11T09:33:39.401Z,100438.19
2019-04-11T09:36:30.309Z,100438.99
2019-04-11T09:50:46.940Z,100420.27
2019-04-11T09:53:20.695Z,100416.74
2019-04-11T09:56:06.894Z,100422.97
2019-04-11T09:58:38.124Z,100414.44
2019-04-11T10:01:35.105Z,100414.11
2019-04-11T10:04:06.937Z,100419.98
2019-04-11T10:06:46.568Z,100419.64
2019-04-11T10:09:19.724Z,100423.30
2019-04-11T10:12:17.928Z,100412.83
2019-04-11T10:14:50.313Z,100419.73
2019-04-11T10:28:04.847Z,100410.61
2019-04-11T10:30:44.119Z,100415.66
2019-04-11T10:44:51.933Z,100396.33
2019-04-11T10:47:25.030Z,100410.57
2019-04-11T10:50:20.056Z,100406.73
2019-04-11T10:52:53.117Z,100407.73
2019-04-11T10:59:17.588Z,100405.63
2019-04-11T11:01:50.819Z,100398.88
2019-04-11T11:04:34.737Z,100395.41
2019-04-11T11:07:10.203Z,100399.27
2019-04-11T11:16:50.757Z,100391.86
2019-04-11T11:19:50.133Z,100390.17
2019-04-11T11:22:17.127Z,100388.34
2019-04-11T11:25:11.639Z,100387.76
2019-04-11T11:31:11.923Z,100377.25
2019-04-11T11:33:44.929Z,100385.24
2019-04-11T11:36:37.492Z,100378.10
2019-04-11T11:39:15.155Z,100376.26
2019-04-11T11:42:04.177Z,100374.69
2019-04-11T11:44:37.126Z,100382.41
2019-04-11T11:58:31.304Z,100361.64
2019-04-11T12:01:08.950Z,100374.39
2019-04-11T12:14:59.927Z,100363.88
2019-04-11T12:17:49.255Z,100349.84
2019-04-11T12:35:30.839Z,100355.59
2019-04-11T12:38:03.191Z,100351.15
2019-04-11T12:52:45.669Z,100344.56
2019-04-11T12:55:18.239Z,100357.80
2019-04-11T12:58:03.842Z,100351.64
2019-04-11T13:00:43.367Z,100353.32
2019-04-11T13:13:55.169Z,100346.19
2019-04-11T13:16:28.927Z,100352.85
2019-04-11T13:19:01.812Z,100342.85
2019-04-11T13:21:47.634Z,100344.72
2019-04-11T13:24:28.369Z,100345.74
2019-04-11T13:27:13.461Z,100349.67
2019-04-11T13:30:10.178Z,100340.16
2019-04-11T13:32:42.753Z,100344.69
2019-04-11T13:35:21.573Z,100345.77
2019-04-11T13:37:57.545Z,100341.89
2019-04-11T13:40:45.671Z,100357.12
2019-04-11T13:43:20.533Z,100345.16
2019-04-11T13:46:10.311Z,100333.87
2019-04-11T13:48:48.840Z,100336.72
2019-04-11T13:51:30.915Z,100327.59
2019-04-11T13:54:38.750Z,100338.04
2019-04-11T13:57:29.319Z,100334.03
2019-04-11T14:11:31.532Z,100319.33
2019-04-11T14:14:20.899Z,100325.49
2019-04-11T14:28:16.577Z,100307.02
2019-04-11T14:31:02.265Z,100259.39
2019-04-11T14:33:45.188Z,100295.95
2019-04-11T14:36:36.617Z,100288.13
2019-04-11T14:39:15.661Z,100289.01
2019-04-11T14:41:54.760Z,100286.10
2019-04-11T14:55:58.023Z,100278.47
2019-04-11T14:58:31.312Z,100275.23
2019-04-11T15:08:01.376Z,100273.38
2019-04-11T15:10:34.800Z,100274.56
2019-04-11T15:23:40.894Z,100276.00
2019-04-11T15:26:13.038Z,100272.22
2019-04-11T15:28:57.138Z,100276.86
2019-04-11T15:31:46.292Z,100279.64
2019-04-11T15:58:47.157Z,100280.30
2019-04-11T16:01:36.117Z,100276.36
2019-04-11T16:04:23.540Z,100283.42
2019-04-11T16:07:09.424Z,100283.72
2019-04-11T16:09:42.756Z,100282.88
2019-04-11T16:12:36.040Z,100283.48
2019-04-11T16:15:14.704Z,100286.28
2019-04-11T16:18:02.329Z,100296.39
2019-04-11T16:20:33.281Z,100296.68
2019-04-11T16:23:27.041Z,100294.06
2019-04-11T16:25:58.691Z,100299.66
2019-04-11T16:28:46.075Z,100299.58
2019-04-11T16:31:18.997Z,100246.83
2019-04-11T16:45:18.284Z,100320.04
2019-04-11T16:47:51.055Z,100329.69
2019-04-11T16:50:29.554Z,100328.79
2019-04-11T16:53:01.552Z,100334.65
2019-04-11T17:17:45.500Z,100368.90
2019-04-11T17:20:16.745Z,100366.05
2019-04-11T17:34:13.508Z,100386.39
2019-04-11T17:36:44.637Z,100384.56
2019-04-11T17:39:21.991Z,100392.02
2019-04-11T17:41:52.612Z,100397.72
2019-04-11T17:55:52.026Z,100396.84
2019-04-11T17:58:26.980Z,100393.72
2019-04-11T18:12:18.662Z,100391.57
2019-04-11T18:14:49.954Z,100393.39
2019-04-11T18:27:55.237Z,100397.94
2019-04-11T18:30:26.425Z,100394.19
2019-04-11T18:43:25.551Z,100396.87
2019-04-11T18:45:56.392Z,100400.58
2019-04-11T18:59:49.608Z,100398.12
2019-04-11T19:02:20.861Z,100397.61
2019-04-11T19:04:57.968Z,100403.80
2019-04-11T19:07:28.684Z,100403.08
2019-04-11T19:10:06.944Z,100404.05
2019-04-11T19:12:37.417Z,100399.34
2019-04-11T19:15:16.730Z,100404.77
2019-04-11T19:17:48.026Z,100394.13
2019-04-11T19:44:59.683Z,100387.26
2019-04-11T19:47:30.257Z,100392.27
2019-04-11T19:50:08.517Z,100396.72
2019-04-11T19:52:45.831Z,100387.61
2019-04-11T19:55:20.876Z,100388.30
2019-04-11T19:57:51.311Z,100387.02
2019-04-11T20:07:02.636Z,100387.88
2019-04-11T20:09:33.568Z,100382.94
2019-04-11T20:12:10.448Z,100384.94
2019-04-11T20:14:42.304Z,100376.94
2019-04-11T20:17:19.859Z,100369.58
2019-04-11T20:20:00.942Z,100370.91
2019-04-11T20:33:55.998Z,100369.45
2019-04-11T20:36:33.272Z,100375.97
2019-04-11T20:39:20.112Z,100364.73
2019-04-11T20:41:54.185Z,100373.79
2019-04-11T20:55:32.696Z,100363.63
2019-04-11T20:58:03.597Z,100367.80
2019-04-11T21:12:01.194Z,100365.98
2019-04-11T21:14:32.033Z,100378.70
2019-04-11T21:17:10.169Z,100373.53
2019-04-11T21:19:41.719Z,100377.03
2019-04-11T21:22:18.455Z,100368.37
2019-04-11T21:24:49.395Z,100364.80
2019-04-11T21:27:28.962Z,100368.57
2019-04-11T21:30:00.609Z,100363.85
2019-04-11T21:44:05.856Z,100373.22
2019-04-11T21:46:37.367Z,100379.66
2019-04-11T21:49:13.034Z,100376.23
2019-04-11T21:51:44.709Z,100383.13
2019-04-11T21:54:23.368Z,100381.19
2019-04-11T21:56:56.112Z,100383.50
2019-04-11T22:10:52.967Z,100390.89
2019-04-11T22:13:23.941Z,100385.69
2019-04-11T22:26:30.834Z,100400.88
2019-04-11T22:29:02.082Z,100398.28
2019-04-11T22:31:39.105Z,100401.37
2019-04-11T22:34:12.156Z,100394.11
2019-04-11T22:48:08.664Z,100395.50
2019-04-11T22:50:40.635Z,100398.09
2019-04-11T23:04:33.835Z,100402.38
2019-04-11T23:07:04.533Z,100408.34
2019-04-11T23:09:41.754Z,100404.77
2019-04-11T23:12:15.207Z,100402.21
2019-04-11T23:14:51.839Z,100404.99
2019-04-11T23:17:23.093Z,100411.86
2019-04-11T23:20:00.658Z,100407.27
2019-04-11T23:22:32.295Z,100406.34
2019-04-11T23:36:15.292Z,100405.86
2019-04-11T23:38:46.034Z,100404.70
2019-04-11T23:51:56.426Z,100408.72
2019-04-11T23:54:29.809Z,100407.33
